KBGD/BGD METAR and TAF weather

Enter ICAO airport designator
Station Type Date Time Source
KBGD METAR 2018/07/21 21:51 UTC NOAA

KBGD 212151Z AUTO 18010G16KT 10SM CLR 41/08 A3001 RMK AO2 SLP104 T04110083


Station Type Date Time Source
KBGD Decoded METAR 2018/07/21 21:51 UTC NOAA

BORGER HUTCHINSON CO AIRPORT , TX, United States (KBGD) 35-42N 101-24W 927M
Jul 21, 2018 - 05:51 PM EDT / 2018.07.21 2151 UTC
Wind: from the S (180 degrees) at 12 MPH (10 KT) gusting to 18 MPH (16 KT):0
Visibility: 10 mile(s):0
Sky conditions: clear
Temperature: 106.0 F (41.1 C)
Dew Point: 46.9 F (8.3 C)
Relative Humidity: 13%
Pressure (altimeter): 30.01 in. Hg (1016 hPa)
ob: KBGD 212151Z AUTO 18010G16KT 10SM CLR 41/08 A3001 RMK AO2 SLP104 T04110083
cycle: 22

Station Type Date Time Source
KBGD TAF UTC NOAA

Error!


Example: see airport list